createdAt,value
2018-08-04T00:01:15.322Z,60.90
2018-08-04T00:03:45.762Z,61.27
2018-08-04T00:06:16.199Z,61.24
2018-08-04T00:08:46.610Z,61.21
2018-08-04T00:11:17.236Z,60.78
2018-08-04T00:13:47.746Z,60.79
2018-08-04T00:16:18.132Z,61.12
2018-08-04T00:18:48.629Z,61.17
2018-08-04T00:21:19.007Z,61.01
2018-08-04T00:23:49.517Z,61.33
2018-08-04T00:26:19.975Z,60.47
2018-08-04T00:28:50.465Z,61.53
2018-08-04T00:31:20.939Z,61.07
2018-08-04T00:33:51.400Z,60.91
2018-08-04T00:36:21.948Z,61.17
2018-08-04T00:38:52.391Z,61.04
2018-08-04T00:41:22.921Z,61.57
2018-08-04T00:43:53.506Z,60.78
2018-08-04T00:46:23.956Z,60.71
2018-08-04T00:48:54.568Z,60.98
2018-08-04T00:51:24.987Z,60.80
2018-08-04T00:53:55.479Z,60.84
2018-08-04T00:56:25.928Z,60.39
2018-08-04T00:58:56.420Z,60.56
2018-08-04T01:01:26.923Z,59.67
2018-08-04T01:03:57.331Z,59.73
2018-08-04T01:06:27.720Z,59.14
2018-08-04T01:08:58.219Z,59.12
2018-08-04T01:11:28.654Z,58.65
2018-08-04T01:13:59.054Z,57.86
2018-08-04T01:16:29.519Z,57.95
2018-08-04T01:18:59.975Z,57.69
2018-08-04T01:21:30.379Z,57.49
2018-08-04T01:24:00.752Z,57.33
2018-08-04T01:26:31.145Z,57.12
2018-08-04T01:29:01.555Z,56.71
2018-08-04T01:31:31.945Z,57.00
2018-08-04T01:34:02.408Z,57.71
2018-08-04T01:36:32.890Z,58.09
2018-08-04T01:39:03.474Z,59.80
2018-08-04T01:41:33.987Z,60.10
2018-08-04T01:44:04.634Z,60.15
2018-08-04T01:46:35.064Z,59.91
2018-08-04T01:49:05.623Z,60.57
2018-08-04T01:51:36.070Z,61.26
2018-08-04T01:54:06.586Z,60.87
2018-08-04T01:56:37.064Z,61.68
2018-08-04T01:59:07.530Z,61.50
2018-08-04T02:01:37.884Z,61.60
2018-08-04T02:04:08.309Z,61.35
2018-08-04T02:06:38.697Z,62.03
2018-08-04T02:09:10.654Z,62.09
2018-08-04T02:11:41.044Z,62.82
2018-08-04T02:14:11.447Z,62.36
2018-08-04T02:16:41.851Z,62.84
2018-08-04T02:19:12.300Z,63.29
2018-08-04T02:21:42.771Z,63.64
2018-08-04T02:24:13.319Z,64.10
2018-08-04T02:26:43.744Z,64.13
2018-08-04T02:29:14.142Z,63.91
2018-08-04T02:31:44.583Z,63.56
2018-08-04T02:34:15.008Z,63.87
2018-08-04T02:36:45.472Z,63.89
2018-08-04T02:39:15.965Z,64.40
2018-08-04T02:41:46.495Z,64.48
2018-08-04T02:44:16.896Z,65.12
2018-08-04T02:46:47.339Z,64.69
2018-08-04T02:49:17.722Z,65.02
2018-08-04T02:51:48.256Z,65.26
2018-08-04T02:54:18.712Z,64.89
2018-08-04T02:56:49.166Z,65.39
2018-08-04T02:59:19.564Z,65.88
2018-08-04T03:01:50.028Z,65.29
2018-08-04T03:04:20.437Z,64.75
2018-08-04T03:06:50.880Z,64.91
2018-08-04T03:09:21.346Z,64.39
2018-08-04T03:11:51.732Z,64.58
2018-08-04T03:14:22.160Z,64.10
2018-08-04T03:16:52.547Z,64.37
2018-08-04T03:19:23.068Z,64.02
2018-08-04T03:21:53.451Z,64.59
2018-08-04T03:24:23.915Z,64.61
2018-08-04T03:26:54.368Z,64.12
2018-08-04T03:29:24.815Z,64.17
2018-08-04T03:31:55.236Z,64.45
2018-08-04T03:34:25.667Z,64.54
2018-08-04T03:36:56.200Z,64.69
2018-08-04T03:39:26.588Z,65.22
2018-08-04T03:41:57.116Z,64.36
2018-08-04T03:44:27.502Z,64.50
2018-08-04T03:46:57.964Z,64.52
2018-08-04T03:49:28.361Z,64.13
2018-08-04T03:51:58.857Z,64.32
2018-08-04T03:54:29.226Z,64.19
2018-08-04T03:56:59.740Z,64.31
2018-08-04T03:59:30.264Z,63.50
2018-08-04T04:02:00.650Z,63.84
2018-08-04T04:04:31.118Z,63.96
2018-08-04T04:07:01.564Z,63.89
2018-08-04T04:09:31.984Z,64.13
2018-08-04T04:12:02.416Z,64.72
2018-08-04T04:14:32.822Z,63.80
2018-08-04T04:17:03.237Z,63.78
2018-08-04T04:19:33.730Z,63.50
2018-08-04T04:22:04.232Z,63.04
2018-08-04T04:24:34.773Z,62.10
2018-08-04T04:27:05.147Z,61.30
2018-08-04T04:29:35.564Z,61.32
2018-08-04T04:32:06.330Z,60.52
2018-08-04T04:34:36.759Z,60.60
2018-08-04T04:37:07.220Z,60.15
2018-08-04T04:39:37.672Z,59.90
2018-08-04T04:42:08.055Z,59.81
2018-08-04T04:44:38.490Z,58.31
2018-08-04T04:47:08.994Z,57.80
2018-08-04T04:49:39.475Z,57.15
2018-08-04T04:52:09.907Z,56.26
2018-08-04T04:54:40.339Z,55.72
2018-08-04T04:57:10.755Z,54.13
2018-08-04T04:59:41.175Z,53.51
2018-08-04T05:02:11.572Z,52.36
2018-08-04T05:04:42.555Z,52.34
2018-08-04T05:07:12.975Z,51.86
2018-08-04T05:09:43.390Z,51.15
2018-08-04T05:12:13.787Z,51.32
2018-08-04T05:14:44.229Z,50.86
2018-08-04T05:17:14.623Z,50.37
2018-08-04T05:19:45.078Z,49.75
2018-08-04T05:22:15.536Z,50.47
2018-08-04T05:24:45.992Z,50.21
2018-08-04T05:27:16.436Z,50.14
2018-08-04T05:29:46.805Z,49.04
2018-08-04T05:32:17.292Z,48.26
2018-08-04T05:34:47.711Z,48.21
2018-08-04T05:37:18.127Z,48.42
2018-08-04T05:39:48.552Z,48.46
2018-08-04T05:42:19.008Z,47.43
2018-08-04T05:44:49.418Z,47.58
2018-08-04T05:47:19.980Z,47.55
2018-08-04T05:49:50.406Z,46.82
2018-08-04T05:52:20.920Z,45.68
2018-08-04T05:54:51.292Z,45.75
2018-08-04T05:57:21.719Z,44.03
2018-08-04T05:59:52.141Z,45.73
2018-08-04T06:02:22.583Z,44.65
2018-08-04T06:04:53.016Z,43.91
2018-08-04T06:07:23.467Z,44.27
2018-08-04T06:09:54.261Z,43.30
2018-08-04T06:12:24.829Z,43.18
2018-08-04T06:14:55.234Z,42.93
2018-08-04T06:17:25.651Z,43.56
2018-08-04T06:19:56.023Z,43.33
2018-08-04T06:22:26.444Z,43.15
2018-08-04T06:24:56.863Z,42.58
2018-08-04T06:27:27.353Z,42.35
2018-08-04T06:29:58.695Z,41.85
2018-08-04T06:32:29.075Z,42.25
2018-08-04T06:34:59.564Z,42.46
2018-08-04T06:37:30.040Z,41.12
2018-08-04T06:40:00.482Z,40.59
2018-08-04T06:42:31.012Z,40.08
2018-08-04T06:45:01.387Z,40.44
2018-08-04T06:47:31.839Z,40.67
2018-08-04T06:50:02.253Z,40.36
2018-08-04T06:52:32.687Z,39.56
2018-08-04T06:55:03.077Z,39.93
2018-08-04T06:57:33.580Z,39.07
2018-08-04T07:00:04.059Z,39.51
2018-08-04T07:02:34.530Z,38.66
2018-08-04T07:05:05.084Z,38.26
2018-08-04T07:07:35.459Z,37.98
2018-08-04T07:10:06.238Z,38.31
2018-08-04T07:12:36.666Z,37.16
2018-08-04T07:15:07.171Z,37.73
2018-08-04T07:17:37.672Z,37.59
2018-08-04T07:20:08.241Z,37.00
2018-08-04T07:22:38.759Z,35.70
2018-08-04T07:25:09.200Z,35.37
2018-08-04T07:27:39.647Z,35.39
2018-08-04T07:30:14.487Z,35.31
2018-08-04T07:32:45.842Z,34.38
2018-08-04T07:35:16.286Z,33.90
2018-08-04T07:37:46.764Z,33.36
2018-08-04T07:40:17.159Z,33.34
2018-08-04T07:42:47.622Z,32.26
2018-08-04T07:45:18.100Z,32.36
2018-08-04T07:47:48.564Z,32.56
2018-08-04T07:50:19.075Z,32.58
2018-08-04T07:52:49.499Z,31.35
2018-08-04T07:55:19.972Z,30.87
2018-08-04T07:57:50.348Z,30.38
2018-08-04T08:00:20.856Z,27.86
2018-08-04T08:02:51.402Z,29.26
2018-08-04T08:05:21.858Z,28.86
2018-08-04T08:07:52.319Z,31.94
2018-08-04T08:10:22.766Z,29.04
2018-08-04T08:12:53.351Z,29.70
2018-08-04T08:15:24.024Z,29.08
2018-08-04T08:17:54.511Z,27.27
2018-08-04T08:20:24.996Z,28.22
2018-08-04T08:22:55.435Z,28.04
2018-08-04T08:25:25.856Z,28.22
2018-08-04T08:27:56.349Z,30.62
2018-08-04T08:30:26.810Z,28.20
2018-08-04T08:32:57.207Z,28.93
2018-08-04T08:35:27.756Z,28.63
2018-08-04T08:37:58.135Z,28.05
2018-08-04T08:40:28.712Z,28.30
2018-08-04T08:42:59.105Z,28.31
2018-08-04T08:45:29.573Z,28.85
2018-08-04T08:47:59.941Z,28.55
2018-08-04T08:50:30.379Z,29.04
2018-08-04T08:53:00.913Z,30.51
2018-08-04T08:55:31.379Z,29.90
2018-08-04T08:58:01.729Z,29.17
2018-08-04T09:00:32.164Z,28.71
2018-08-04T09:03:02.635Z,28.55
2018-08-04T09:05:33.076Z,28.83
2018-08-04T09:08:03.579Z,28.97
2018-08-04T09:10:33.981Z,26.22
2018-08-04T09:13:04.508Z,25.62
2018-08-04T09:15:35.007Z,26.35
2018-08-04T09:18:05.511Z,26.37
2018-08-04T09:20:35.955Z,26.13
2018-08-04T09:23:06.515Z,27.00
2018-08-04T09:25:36.827Z,28.23
2018-08-04T09:28:07.484Z,29.15
2018-08-04T09:30:37.975Z,29.58
2018-08-04T09:33:08.441Z,27.26
2018-08-04T09:35:38.925Z,28.01
2018-08-04T09:38:09.470Z,28.31
2018-08-04T09:40:39.948Z,27.53
2018-08-04T09:43:10.439Z,27.16
2018-08-04T09:45:40.891Z,26.45
2018-08-04T09:48:11.336Z,26.89
2018-08-04T09:50:41.842Z,29.47
2018-08-04T09:53:12.283Z,29.19
2018-08-04T09:55:42.732Z,27.69
2018-08-04T09:58:13.202Z,26.35
2018-08-04T10:00:48.679Z,27.20
2018-08-04T10:03:19.144Z,27.86
2018-08-04T10:05:49.592Z,28.68
2018-08-04T10:08:20.022Z,27.36
2018-08-04T10:10:50.426Z,27.36
2018-08-04T10:13:20.799Z,26.36
2018-08-04T10:15:51.236Z,27.06
2018-08-04T10:18:21.631Z,26.82
2018-08-04T10:20:52.103Z,27.00
2018-08-04T10:23:22.483Z,26.33
2018-08-04T10:25:52.973Z,26.38
2018-08-04T10:28:23.411Z,27.01
2018-08-04T10:30:53.891Z,28.30
2018-08-04T10:33:24.262Z,26.73
2018-08-04T10:35:55.034Z,25.77
2018-08-04T10:38:25.474Z,26.42
2018-08-04T10:40:55.959Z,27.33
2018-08-04T10:43:26.463Z,26.40
2018-08-04T10:45:56.851Z,25.93
2018-08-04T10:48:27.239Z,26.62
2018-08-04T10:50:57.671Z,27.16
2018-08-04T10:53:28.123Z,28.41
2018-08-04T10:55:58.522Z,27.11
2018-08-04T10:58:28.923Z,24.39
2018-08-04T11:00:59.296Z,24.32
2018-08-04T11:03:29.780Z,25.47
2018-08-04T11:06:00.209Z,24.84
2018-08-04T11:08:30.749Z,25.00
2018-08-04T11:11:01.179Z,27.17
2018-08-04T11:13:31.590Z,26.02
2018-08-04T11:16:01.974Z,25.13
2018-08-04T11:18:32.603Z,23.93
2018-08-04T11:21:03.170Z,24.65
2018-08-04T11:23:33.635Z,26.01
2018-08-04T11:26:04.155Z,26.88
2018-08-04T11:28:34.599Z,25.84
2018-08-04T11:31:05.063Z,25.42
2018-08-04T11:33:35.458Z,26.11
2018-08-04T11:36:06.033Z,25.64
2018-08-04T11:38:36.407Z,25.53
2018-08-04T11:41:07.124Z,24.99
2018-08-04T11:43:37.557Z,25.58
2018-08-04T11:46:08.068Z,26.10
2018-08-04T11:48:38.486Z,24.81
2018-08-04T11:51:08.948Z,24.58
2018-08-04T11:53:39.428Z,24.75
2018-08-04T11:56:09.879Z,24.16
2018-08-04T11:58:40.283Z,25.12
2018-08-04T12:01:10.816Z,25.63
2018-08-04T12:03:41.352Z,25.58
2018-08-04T12:06:11.735Z,25.57
2018-08-04T12:08:42.228Z,25.97
2018-08-04T12:11:12.724Z,24.64
2018-08-04T12:13:43.183Z,24.05
2018-08-04T12:16:13.629Z,24.18
2018-08-04T12:18:44.069Z,25.46
2018-08-04T12:21:14.471Z,24.80
2018-08-04T12:23:44.902Z,24.65
2018-08-04T12:26:15.347Z,25.59
2018-08-04T12:28:45.775Z,25.01
2018-08-04T12:31:16.260Z,25.00
2018-08-04T12:33:46.667Z,25.04
2018-08-04T12:36:17.116Z,25.04
2018-08-04T12:38:47.912Z,23.04
2018-08-04T12:41:18.283Z,23.42
2018-08-04T12:43:48.727Z,23.53
2018-08-04T12:46:19.195Z,25.26
2018-08-04T12:48:49.698Z,25.15
2018-08-04T12:51:20.067Z,24.79
2018-08-04T12:53:50.535Z,24.12
2018-08-04T12:56:20.903Z,24.43
2018-08-04T12:58:51.344Z,25.52
2018-08-04T13:01:21.749Z,25.21
2018-08-04T13:03:52.160Z,24.73
2018-08-04T13:06:22.574Z,23.84
2018-08-04T13:08:53.064Z,23.63
2018-08-04T13:11:23.477Z,23.23
2018-08-04T13:13:53.882Z,21.89
2018-08-04T13:16:24.420Z,22.32
2018-08-04T13:18:54.791Z,22.72
2018-08-04T13:21:25.212Z,21.99
2018-08-04T13:23:55.708Z,22.26
2018-08-04T13:26:26.167Z,22.93
2018-08-04T13:28:56.535Z,22.93
2018-08-04T13:31:26.972Z,23.20
2018-08-04T13:33:57.358Z,23.22
2018-08-04T13:36:27.762Z,22.29
2018-08-04T13:38:58.187Z,22.29
2018-08-04T13:41:28.612Z,22.47
2018-08-04T13:43:59.064Z,22.26
2018-08-04T13:46:29.520Z,24.14
2018-08-04T13:49:00.016Z,24.90
2018-08-04T13:51:30.463Z,25.09
2018-08-04T13:54:00.932Z,25.20
2018-08-04T13:56:31.328Z,25.85
2018-08-04T13:59:01.753Z,24.90
2018-08-04T14:01:32.165Z,24.87
2018-08-04T14:04:02.590Z,25.65
2018-08-04T14:06:33.101Z,24.81
2018-08-04T14:09:03.820Z,26.16
2018-08-04T14:11:34.294Z,24.56
2018-08-04T14:14:05.009Z,25.13
2018-08-04T14:16:35.532Z,25.38
2018-08-04T14:19:05.993Z,24.09
2018-08-04T14:21:36.428Z,22.83
2018-08-04T14:24:06.903Z,23.17
2018-08-04T14:26:37.374Z,23.25
2018-08-04T14:29:07.838Z,23.76
2018-08-04T14:31:38.255Z,22.95
2018-08-04T14:34:08.695Z,23.16
2018-08-04T14:36:39.147Z,23.86
2018-08-04T14:39:11.792Z,23.38
2018-08-04T14:41:42.729Z,24.93
2018-08-04T14:44:13.111Z,24.04
2018-08-04T14:46:43.604Z,22.81
2018-08-04T14:49:13.979Z,24.28
2018-08-04T14:51:44.520Z,23.84
2018-08-04T14:54:14.911Z,23.44
2018-08-04T14:56:45.307Z,23.52
2018-08-04T14:59:15.692Z,23.72
2018-08-04T15:01:46.186Z,24.70
2018-08-04T15:04:16.597Z,23.54
2018-08-04T15:06:47.039Z,24.21
2018-08-04T15:09:17.450Z,25.39
2018-08-04T15:11:47.920Z,23.80
2018-08-04T15:14:18.395Z,22.78
2018-08-04T15:16:48.816Z,23.02
2018-08-04T15:19:19.289Z,23.04
2018-08-04T15:21:49.672Z,21.79
2018-08-04T15:24:20.143Z,21.98
2018-08-04T15:26:50.592Z,22.53
2018-08-04T15:29:21.039Z,22.55
2018-08-04T15:31:51.520Z,22.83
2018-08-04T15:34:22.004Z,23.36
2018-08-04T15:36:52.496Z,23.50
2018-08-04T15:39:22.935Z,24.48
2018-08-04T15:41:53.388Z,24.44
2018-08-04T15:44:23.803Z,23.73
2018-08-04T15:46:54.234Z,24.22
2018-08-04T15:49:24.603Z,24.36
2018-08-04T15:51:55.037Z,24.60
2018-08-04T15:54:25.462Z,24.99
2018-08-04T15:56:55.855Z,24.42
2018-08-04T15:59:26.294Z,24.84
2018-08-04T16:01:56.680Z,24.63
2018-08-04T16:04:27.150Z,26.11
2018-08-04T16:06:57.647Z,26.99
2018-08-04T16:09:28.143Z,27.85
2018-08-04T16:11:58.570Z,27.88
2018-08-04T16:14:28.955Z,27.69
2018-08-04T16:16:59.379Z,28.59
2018-08-04T16:19:29.803Z,29.94
2018-08-04T16:22:00.233Z,30.35
2018-08-04T16:24:30.727Z,31.49
2018-08-04T16:27:01.145Z,32.05
2018-08-04T16:29:31.540Z,32.18
2018-08-04T16:32:01.968Z,31.98
2018-08-04T16:34:32.355Z,32.07
2018-08-04T16:37:02.846Z,32.75
2018-08-04T16:39:33.259Z,33.14
2018-08-04T16:42:03.703Z,33.77
2018-08-04T16:44:34.207Z,33.74
2018-08-04T16:47:04.631Z,33.66
2018-08-04T16:49:35.035Z,34.25
2018-08-04T16:52:05.428Z,34.48
2018-08-04T16:54:35.861Z,34.62
2018-08-04T16:57:06.375Z,34.88
2018-08-04T16:59:36.880Z,35.49
2018-08-04T17:02:07.400Z,35.59
2018-08-04T17:04:38.031Z,35.72
2018-08-04T17:07:08.399Z,35.19
2018-08-04T17:09:38.815Z,34.86
2018-08-04T17:12:09.236Z,34.88
2018-08-04T17:14:39.625Z,35.96
2018-08-04T17:17:10.035Z,35.71
2018-08-04T17:19:40.487Z,35.85
2018-08-04T17:22:11.060Z,36.06
2018-08-04T17:24:41.482Z,36.32
2018-08-04T17:27:11.913Z,36.16
2018-08-04T17:29:42.304Z,36.16
2018-08-04T17:32:12.758Z,36.68
2018-08-04T17:34:43.192Z,37.06
2018-08-04T17:37:13.633Z,37.73
2018-08-04T17:39:44.095Z,37.55
2018-08-04T17:42:14.568Z,37.88
2018-08-04T17:44:45.148Z,38.15
2018-08-04T17:47:15.579Z,38.44
2018-08-04T17:49:46.032Z,39.02
2018-08-04T17:52:16.558Z,38.84
2018-08-04T17:54:46.983Z,38.96
2018-08-04T17:57:17.667Z,39.47
2018-08-04T17:59:48.079Z,39.04
2018-08-04T18:02:18.456Z,39.54
2018-08-04T18:04:48.918Z,39.22
2018-08-04T18:07:19.375Z,40.30
2018-08-04T18:09:49.851Z,41.16
2018-08-04T18:12:20.303Z,41.34
2018-08-04T18:14:50.679Z,41.78
2018-08-04T18:17:21.091Z,42.35
2018-08-04T18:19:51.679Z,42.91
2018-08-04T18:22:22.103Z,42.46
2018-08-04T18:24:52.543Z,41.95
2018-08-04T18:27:22.972Z,42.28
2018-08-04T18:29:53.413Z,42.79
2018-08-04T18:32:23.823Z,42.80
2018-08-04T18:34:54.303Z,42.80
2018-08-04T18:37:24.704Z,42.31
2018-08-04T18:39:55.213Z,42.62
2018-08-04T18:42:25.619Z,42.65
2018-08-04T18:44:55.983Z,42.12
2018-08-04T18:47:26.455Z,41.98
2018-08-04T18:49:56.865Z,42.52
2018-08-04T18:52:27.262Z,42.27
2018-08-04T18:54:57.857Z,41.40
2018-08-04T18:57:28.391Z,41.10
2018-08-04T18:59:58.874Z,42.45
2018-08-04T19:02:29.289Z,42.10
2018-08-04T19:04:59.663Z,41.54
2018-08-04T19:07:30.182Z,42.33
2018-08-04T19:10:00.608Z,41.54
2018-08-04T19:12:31.084Z,41.35
2018-08-04T19:15:01.564Z,41.06
2018-08-04T19:17:31.988Z,40.79
2018-08-04T19:20:02.446Z,40.81
2018-08-04T19:22:32.889Z,41.13
2018-08-04T19:25:03.436Z,40.39
2018-08-04T19:27:33.811Z,41.17
2018-08-04T19:30:04.365Z,40.89
2018-08-04T19:32:34.768Z,40.28
2018-08-04T19:35:05.609Z,40.59
2018-08-04T19:37:36.098Z,40.98
2018-08-04T19:40:06.872Z,40.74
2018-08-04T19:42:37.251Z,40.67
2018-08-04T19:45:07.731Z,40.23
2018-08-04T19:47:38.111Z,41.16
2018-08-04T19:50:08.589Z,40.03
2018-08-04T19:52:38.982Z,39.95
2018-08-04T19:55:09.551Z,39.98
2018-08-04T19:57:39.968Z,40.16
2018-08-04T20:00:10.355Z,40.14
2018-08-04T20:02:40.750Z,40.31
2018-08-04T20:05:11.216Z,40.78
2018-08-04T20:07:41.662Z,40.71
2018-08-04T20:10:12.069Z,42.28
2018-08-04T20:12:42.544Z,41.95
2018-08-04T20:15:12.956Z,41.84
2018-08-04T20:17:43.462Z,43.23
2018-08-04T20:20:13.900Z,43.30
2018-08-04T20:22:44.303Z,43.35
2018-08-04T20:25:14.720Z,42.35
2018-08-04T20:27:45.087Z,41.92
2018-08-04T20:30:15.455Z,42.13
2018-08-04T20:32:45.951Z,42.71
2018-08-04T20:35:16.358Z,42.91
2018-08-04T20:37:46.769Z,43.83
2018-08-04T20:40:17.228Z,44.30
2018-08-04T20:42:47.703Z,44.33
2018-08-04T20:45:18.115Z,44.30
2018-08-04T20:47:48.604Z,43.58
2018-08-04T20:50:19.035Z,43.49
2018-08-04T20:52:49.808Z,44.46
2018-08-04T20:55:20.267Z,43.17
2018-08-04T20:57:50.691Z,42.65
2018-08-04T21:00:21.080Z,44.12
2018-08-04T21:02:51.644Z,43.83
2018-08-04T21:05:22.119Z,43.79
2018-08-04T21:07:52.539Z,44.08
2018-08-04T21:10:22.955Z,44.32
2018-08-04T21:12:53.395Z,45.25
2018-08-04T21:15:23.895Z,45.37
2018-08-04T21:17:54.287Z,44.80
2018-08-04T21:20:24.889Z,45.79
2018-08-04T21:22:55.272Z,46.02
2018-08-04T21:25:25.744Z,45.48
2018-08-04T21:27:56.212Z,45.55
2018-08-04T21:30:26.591Z,45.51
2018-08-04T21:32:57.023Z,45.38
2018-08-04T21:35:27.545Z,45.03
2018-08-04T21:37:58.111Z,44.96
2018-08-04T21:40:28.571Z,45.79
2018-08-04T21:42:58.985Z,45.92
2018-08-04T21:45:29.431Z,45.19
2018-08-04T21:47:59.939Z,45.99
2018-08-04T21:50:30.373Z,45.91
2018-08-04T21:53:00.756Z,46.67
2018-08-04T21:55:31.203Z,46.64
2018-08-04T21:58:01.610Z,46.97
2018-08-04T22:00:32.080Z,48.06
2018-08-04T22:03:03.645Z,47.69
2018-08-04T22:05:34.161Z,47.96
2018-08-04T22:08:15.395Z,47.89
2018-08-04T22:10:45.847Z,48.05
2018-08-04T22:13:16.229Z,48.75
2018-08-04T22:15:46.677Z,49.00
2018-08-04T22:18:17.152Z,49.55
2018-08-04T22:20:47.552Z,50.62
2018-08-04T22:23:17.980Z,50.49
2018-08-04T22:25:48.376Z,50.47
2018-08-04T22:28:18.799Z,50.52
2018-08-04T22:30:49.212Z,50.30
2018-08-04T22:33:19.755Z,50.34
2018-08-04T22:35:50.171Z,50.56
2018-08-04T22:38:20.628Z,51.03
2018-08-04T22:40:51.025Z,51.35
2018-08-04T22:43:21.392Z,50.96
2018-08-04T22:46:12.035Z,51.24
2018-08-04T22:48:44.531Z,50.40
2018-08-04T22:51:15.012Z,51.24
2018-08-04T22:53:45.399Z,51.21
2018-08-04T22:56:15.845Z,51.24
2018-08-04T22:58:46.379Z,50.73
2018-08-04T23:01:16.857Z,51.18
2018-08-04T23:06:17.713Z,51.86
2018-08-04T23:08:48.144Z,51.32
2018-08-04T23:11:18.575Z,51.87
2018-08-04T23:13:49.064Z,52.73
2018-08-04T23:16:19.415Z,52.26
2018-08-04T23:18:49.780Z,51.53
2018-08-04T23:21:20.228Z,51.41
2018-08-04T23:23:50.563Z,51.70
2018-08-04T23:26:21.008Z,51.80
2018-08-04T23:28:51.455Z,51.49
2018-08-04T23:31:21.927Z,51.58
2018-08-04T23:33:52.395Z,51.29
2018-08-04T23:36:22.787Z,52.00
2018-08-04T23:38:53.242Z,51.47
2018-08-04T23:41:23.789Z,51.56
2018-08-04T23:43:54.183Z,52.12
2018-08-04T23:46:24.619Z,52.00
2018-08-04T23:48:55.264Z,52.03
2018-08-04T23:51:25.865Z,52.06
2018-08-04T23:53:56.215Z,52.16
2018-08-04T23:56:26.679Z,51.75
2018-08-04T23:58:57.143Z,52.30
